sensor_id;sensor_type;location;lat;lon;timestamp;temperature;humidity
68098;DHT22;54886;47.036;15.466;2022-12-18T00:01:22;0.19;82.40
68098;DHT22;54886;47.036;15.466;2022-12-18T00:03:49;0.20;82.89
68098;DHT22;54886;47.036;15.466;2022-12-18T00:06:18;0.21;82.91
68098;DHT22;54886;47.036;15.466;2022-12-18T00:08:44;0.13;81.86
68098;DHT22;54886;47.036;15.466;2022-12-18T00:11:16;0.09;82.26
68098;DHT22;54886;47.036;15.466;2022-12-18T00:13:45;0.07;82.72
68098;DHT22;54886;47.036;15.466;2022-12-18T00:16:20;0.07;82.54
68098;DHT22;54886;47.036;15.466;2022-12-18T00:18:53;0.05;82.28
68098;DHT22;54886;47.036;15.466;2022-12-18T00:21:19;0.02;82.46
68098;DHT22;54886;47.036;15.466;2022-12-18T00:23:46;-0.01;82.18
68098;DHT22;54886;47.036;15.466;2022-12-18T00:26:18;-0.02;82.14
68098;DHT22;54886;47.036;15.466;2022-12-18T00:28:44;-0.02;82.00
68098;DHT22;54886;47.036;15.466;2022-12-18T00:31:21;-0.08;81.46
68098;DHT22;54886;47.036;15.466;2022-12-18T00:33:47;-0.07;82.07
68098;DHT22;54886;47.036;15.466;2022-12-18T00:36:18;-0.15;81.35
68098;DHT22;54886;47.036;15.466;2022-12-18T00:38:44;-0.19;81.69
68098;DHT22;54886;47.036;15.466;2022-12-18T00:41:10;-0.21;81.31
68098;DHT22;54886;47.036;15.466;2022-12-18T00:43:37;-0.26;81.89
68098;DHT22;54886;47.036;15.466;2022-12-18T00:46:03;-0.28;81.75
68098;DHT22;54886;47.036;15.466;2022-12-18T00:48:29;-0.33;81.94
68098;DHT22;54886;47.036;15.466;2022-12-18T00:50:54;-0.30;82.25
68098;DHT22;54886;47.036;15.466;2022-12-18T00:53:20;-0.36;81.70
68098;DHT22;54886;47.036;15.466;2022-12-18T00:55:46;-0.33;82.51
68098;DHT22;54886;47.036;15.466;2022-12-18T00:58:13;-0.38;82.03
68098;DHT22;54886;47.036;15.466;2022-12-18T01:00:39;-0.38;82.13
68098;DHT22;54886;47.036;15.466;2022-12-18T01:03:05;-0.40;81.42
68098;DHT22;54886;47.036;15.466;2022-12-18T01:05:31;-0.39;82.25
68098;DHT22;54886;47.036;15.466;2022-12-18T01:07:56;-0.48;81.82
68098;DHT22;54886;47.036;15.466;2022-12-18T01:10:22;-0.43;82.35
68098;DHT22;54886;47.036;15.466;2022-12-18T01:12:48;-0.46;82.15
68098;DHT22;54886;47.036;15.466;2022-12-18T01:15:14;-0.49;81.87
68098;DHT22;54886;47.036;15.466;2022-12-18T01:17:40;-0.50;81.81
68098;DHT22;54886;47.036;15.466;2022-12-18T01:20:06;-0.50;81.48
68098;DHT22;54886;47.036;15.466;2022-12-18T01:22:35;-0.56;81.42
68098;DHT22;54886;47.036;15.466;2022-12-18T01:25:01;-0.56;81.85
68098;DHT22;54886;47.036;15.466;2022-12-18T01:27:26;-0.60;81.72
68098;DHT22;54886;47.036;15.466;2022-12-18T01:29:52;-0.62;81.74
68098;DHT22;54886;47.036;15.466;2022-12-18T01:32:17;-0.64;81.49
68098;DHT22;54886;47.036;15.466;2022-12-18T01:34:42;-0.66;81.45
68098;DHT22;54886;47.036;15.466;2022-12-18T01:37:08;-0.67;81.44
68098;DHT22;54886;47.036;15.466;2022-12-18T01:39:33;-0.73;81.25
68098;DHT22;54886;47.036;15.466;2022-12-18T01:42:00;-0.73;81.10
68098;DHT22;54886;47.036;15.466;2022-12-18T01:49:47;-0.80;81.65
68098;DHT22;54886;47.036;15.466;2022-12-18T01:52:15;-0.81;81.53
68098;DHT22;54886;47.036;15.466;2022-12-18T01:54:41;-0.88;81.64
68098;DHT22;54886;47.036;15.466;2022-12-18T01:57:07;-0.90;81.36
68098;DHT22;54886;47.036;15.466;2022-12-18T01:59:33;-0.91;81.68
68098;DHT22;54886;47.036;15.466;2022-12-18T02:02:00;-0.91;81.58
68098;DHT22;54886;47.036;15.466;2022-12-18T02:04:27;-1.04;80.91
68098;DHT22;54886;47.036;15.466;2022-12-18T02:07:05;-1.04;81.75
68098;DHT22;54886;47.036;15.466;2022-12-18T02:10:20;-1.05;81.68
68098;DHT22;54886;47.036;15.466;2022-12-18T02:15:22;-1.12;81.41
68098;DHT22;54886;47.036;15.466;2022-12-18T02:17:56;-1.16;81.07
68098;DHT22;54886;47.036;15.466;2022-12-18T02:20:47;-1.18;81.34
68098;DHT22;54886;47.036;15.466;2022-12-18T02:23:45;-1.25;81.15
68098;DHT22;54886;47.036;15.466;2022-12-18T02:26:16;-1.22;81.39
68098;DHT22;54886;47.036;15.466;2022-12-18T02:29:03;-1.27;81.42
68098;DHT22;54886;47.036;15.466;2022-12-18T02:31:35;-1.27;81.86
68098;DHT22;54886;47.036;15.466;2022-12-18T02:34:03;-1.27;81.43
68098;DHT22;54886;47.036;15.466;2022-12-18T02:36:31;-1.28;82.00
68098;DHT22;54886;47.036;15.466;2022-12-18T02:38:59;-1.29;82.28
68098;DHT22;54886;47.036;15.466;2022-12-18T02:41:26;-1.31;82.00
68098;DHT22;54886;47.036;15.466;2022-12-18T02:43:58;-1.32;81.92
68098;DHT22;54886;47.036;15.466;2022-12-18T02:51:40;-1.43;81.59
68098;DHT22;54886;47.036;15.466;2022-12-18T02:54:21;-1.42;82.10
68098;DHT22;54886;47.036;15.466;2022-12-18T02:56:54;-1.45;81.56
68098;DHT22;54886;47.036;15.466;2022-12-18T02:59:30;-1.46;81.67
68098;DHT22;54886;47.036;15.466;2022-12-18T03:02:00;-1.45;82.05
68098;DHT22;54886;47.036;15.466;2022-12-18T03:04:32;-1.47;81.98
68098;DHT22;54886;47.036;15.466;2022-12-18T03:07:07;-1.47;81.82
68098;DHT22;54886;47.036;15.466;2022-12-18T03:09:36;-1.47;81.93
68098;DHT22;54886;47.036;15.466;2022-12-18T03:12:15;-1.53;81.40
68098;DHT22;54886;47.036;15.466;2022-12-18T03:14:59;-1.55;81.60
68098;DHT22;54886;47.036;15.466;2022-12-18T03:17:27;-1.59;81.69
68098;DHT22;54886;47.036;15.466;2022-12-18T03:19:56;-1.62;81.49
68098;DHT22;54886;47.036;15.466;2022-12-18T03:22:24;-1.66;81.41
68098;DHT22;54886;47.036;15.466;2022-12-18T03:24:54;-1.64;81.53
68098;DHT22;54886;47.036;15.466;2022-12-18T03:27:22;-1.66;81.71
68098;DHT22;54886;47.036;15.466;2022-12-18T03:29:56;-1.66;81.62
68098;DHT22;54886;47.036;15.466;2022-12-18T03:32:31;-1.75;80.97
68098;DHT22;54886;47.036;15.466;2022-12-18T03:35:02;-1.75;81.26
68098;DHT22;54886;47.036;15.466;2022-12-18T03:37:31;-1.75;81.38
68098;DHT22;54886;47.036;15.466;2022-12-18T03:39:57;-1.80;81.15
68098;DHT22;54886;47.036;15.466;2022-12-18T03:45:06;-1.83;81.66
68098;DHT22;54886;47.036;15.466;2022-12-18T03:47:53;-1.83;81.77
68098;DHT22;54886;47.036;15.466;2022-12-18T03:53:00;-1.91;81.37
68098;DHT22;54886;47.036;15.466;2022-12-18T03:55:32;-1.90;81.28
68098;DHT22;54886;47.036;15.466;2022-12-18T03:57:59;-1.93;81.42
68098;DHT22;54886;47.036;15.466;2022-12-18T04:00:28;-1.87;81.63
68098;DHT22;54886;47.036;15.466;2022-12-18T04:02:55;-1.94;81.23
68098;DHT22;54886;47.036;15.466;2022-12-18T04:05:23;-1.95;81.82
68098;DHT22;54886;47.036;15.466;2022-12-18T04:07:50;-1.95;81.80
68098;DHT22;54886;47.036;15.466;2022-12-18T04:10:17;-1.98;81.47
68098;DHT22;54886;47.036;15.466;2022-12-18T04:12:43;-2.04;81.25
68098;DHT22;54886;47.036;15.466;2022-12-18T04:15:09;-2.05;81.48
68098;DHT22;54886;47.036;15.466;2022-12-18T04:17:35;-2.09;81.36
68098;DHT22;54886;47.036;15.466;2022-12-18T04:20:01;-2.09;81.56
68098;DHT22;54886;47.036;15.466;2022-12-18T04:22:26;-2.16;81.09
68098;DHT22;54886;47.036;15.466;2022-12-18T04:24:52;-2.18;81.28
68098;DHT22;54886;47.036;15.466;2022-12-18T04:27:17;-2.16;81.75
68098;DHT22;54886;47.036;15.466;2022-12-18T04:29:42;-2.21;81.74
68098;DHT22;54886;47.036;15.466;2022-12-18T04:32:08;-2.16;81.93
68098;DHT22;54886;47.036;15.466;2022-12-18T04:34:33;-2.23;81.49
68098;DHT22;54886;47.036;15.466;2022-12-18T04:36:59;-2.23;81.74
68098;DHT22;54886;47.036;15.466;2022-12-18T04:39:24;-2.33;81.59
68098;DHT22;54886;47.036;15.466;2022-12-18T04:41:50;-2.35;81.68
68098;DHT22;54886;47.036;15.466;2022-12-18T04:44:17;-2.38;81.47
68098;DHT22;54886;47.036;15.466;2022-12-18T04:46:42;-2.42;81.39
68098;DHT22;54886;47.036;15.466;2022-12-18T04:49:07;-2.45;81.71
68098;DHT22;54886;47.036;15.466;2022-12-18T04:51:35;-2.50;81.53
68098;DHT22;54886;47.036;15.466;2022-12-18T04:54:01;-2.52;81.80
68098;DHT22;54886;47.036;15.466;2022-12-18T04:56:26;-2.53;81.99
68098;DHT22;54886;47.036;15.466;2022-12-18T04:58:52;-2.53;82.07
68098;DHT22;54886;47.036;15.466;2022-12-18T05:01:19;-2.60;82.64
68098;DHT22;54886;47.036;15.466;2022-12-18T05:03:44;-2.61;82.88
68098;DHT22;54886;47.036;15.466;2022-12-18T05:06:10;-2.58;83.29
68098;DHT22;54886;47.036;15.466;2022-12-18T05:08:35;-2.57;83.62
68098;DHT22;54886;47.036;15.466;2022-12-18T05:11:06;-2.54;83.47
68098;DHT22;54886;47.036;15.466;2022-12-18T05:13:33;-2.54;83.62
68098;DHT22;54886;47.036;15.466;2022-12-18T05:15:59;-2.56;83.79
68098;DHT22;54886;47.036;15.466;2022-12-18T05:18:25;-2.53;83.93
68098;DHT22;54886;47.036;15.466;2022-12-18T05:20:51;-2.58;84.04
68098;DHT22;54886;47.036;15.466;2022-12-18T05:23:18;-2.67;84.25
68098;DHT22;54886;47.036;15.466;2022-12-18T05:25:54;-2.66;84.23
68098;DHT22;54886;47.036;15.466;2022-12-18T05:28:21;-2.68;84.50
68098;DHT22;54886;47.036;15.466;2022-12-18T05:30:53;-2.66;84.46
68098;DHT22;54886;47.036;15.466;2022-12-18T05:33:20;-2.64;84.15
68098;DHT22;54886;47.036;15.466;2022-12-18T05:35:56;-2.78;84.59
68098;DHT22;54886;47.036;15.466;2022-12-18T05:38:23;-2.73;84.51
68098;DHT22;54886;47.036;15.466;2022-12-18T05:40:50;-2.73;84.33
68098;DHT22;54886;47.036;15.466;2022-12-18T05:43:16;-2.74;84.57
68098;DHT22;54886;47.036;15.466;2022-12-18T05:45:42;-2.77;84.40
68098;DHT22;54886;47.036;15.466;2022-12-18T05:48:08;-2.78;84.56
68098;DHT22;54886;47.036;15.466;2022-12-18T05:50:38;-2.80;84.64
68098;DHT22;54886;47.036;15.466;2022-12-18T05:53:04;-2.78;84.38
68098;DHT22;54886;47.036;15.466;2022-12-18T05:55:37;-2.81;84.86
68098;DHT22;54886;47.036;15.466;2022-12-18T05:58:04;-2.81;84.76
68098;DHT22;54886;47.036;15.466;2022-12-18T06:00:30;-2.84;85.11
68098;DHT22;54886;47.036;15.466;2022-12-18T06:02:55;-2.81;84.90
68098;DHT22;54886;47.036;15.466;2022-12-18T06:05:21;-2.78;84.83
68098;DHT22;54886;47.036;15.466;2022-12-18T06:07:46;-2.78;84.66
68098;DHT22;54886;47.036;15.466;2022-12-18T06:10:12;-2.75;84.56
68098;DHT22;54886;47.036;15.466;2022-12-18T06:12:37;-2.77;84.65
68098;DHT22;54886;47.036;15.466;2022-12-18T06:15:03;-2.77;84.72
68098;DHT22;54886;47.036;15.466;2022-12-18T06:17:30;-2.80;84.72
68098;DHT22;54886;47.036;15.466;2022-12-18T06:19:55;-2.80;84.91
68098;DHT22;54886;47.036;15.466;2022-12-18T06:22:21;-2.81;84.87
68098;DHT22;54886;47.036;15.466;2022-12-18T06:24:46;-2.80;84.53
68098;DHT22;54886;47.036;15.466;2022-12-18T06:27:12;-2.81;84.83
68098;DHT22;54886;47.036;15.466;2022-12-18T06:29:37;-2.80;84.67
68098;DHT22;54886;47.036;15.466;2022-12-18T06:32:03;-2.77;84.71
68098;DHT22;54886;47.036;15.466;2022-12-18T06:34:32;-2.73;84.45
68098;DHT22;54886;47.036;15.466;2022-12-18T06:36:58;-2.75;84.40
68098;DHT22;54886;47.036;15.466;2022-12-18T06:39:24;-2.71;84.52
68098;DHT22;54886;47.036;15.466;2022-12-18T06:41:49;-2.70;84.33
68098;DHT22;54886;47.036;15.466;2022-12-18T06:44:15;-2.67;84.18
68098;DHT22;54886;47.036;15.466;2022-12-18T06:46:40;-2.68;83.95
68098;DHT22;54886;47.036;15.466;2022-12-18T06:49:06;-2.67;83.79
68098;DHT22;54886;47.036;15.466;2022-12-18T06:51:34;-2.68;83.62
68098;DHT22;54886;47.036;15.466;2022-12-18T06:53:59;-2.71;83.98
68098;DHT22;54886;47.036;15.466;2022-12-18T06:56:25;-2.68;83.46
68098;DHT22;54886;47.036;15.466;2022-12-18T06:58:50;-2.67;83.48
68098;DHT22;54886;47.036;15.466;2022-12-18T07:01:16;-2.67;83.51
68098;DHT22;54886;47.036;15.466;2022-12-18T07:03:42;-2.63;83.54
68098;DHT22;54886;47.036;15.466;2022-12-18T07:06:14;-2.66;83.72
68098;DHT22;54886;47.036;15.466;2022-12-18T07:08:40;-2.66;83.76
68098;DHT22;54886;47.036;15.466;2022-12-18T07:11:06;-2.66;83.84
68098;DHT22;54886;47.036;15.466;2022-12-18T07:13:31;-2.61;83.70
68098;DHT22;54886;47.036;15.466;2022-12-18T07:16:09;-2.61;83.76
68098;DHT22;54886;47.036;15.466;2022-12-18T07:18:35;-2.60;83.78
68098;DHT22;54886;47.036;15.466;2022-12-18T07:21:05;-2.56;84.09
68098;DHT22;54886;47.036;15.466;2022-12-18T07:23:32;-2.56;84.13
68098;DHT22;54886;47.036;15.466;2022-12-18T07:26:06;-2.53;84.12
68098;DHT22;54886;47.036;15.466;2022-12-18T07:28:33;-2.50;84.09
68098;DHT22;54886;47.036;15.466;2022-12-18T07:31:03;-2.52;84.27
68098;DHT22;54886;47.036;15.466;2022-12-18T07:33:29;-2.47;84.44
68098;DHT22;54886;47.036;15.466;2022-12-18T07:35:54;-2.47;83.74
68098;DHT22;54886;47.036;15.466;2022-12-18T07:38:20;-2.45;83.37
68098;DHT22;54886;47.036;15.466;2022-12-18T07:40:45;-2.45;83.59
68098;DHT22;54886;47.036;15.466;2022-12-18T07:43:11;-2.42;83.62
68098;DHT22;54886;47.036;15.466;2022-12-18T07:45:36;-2.40;83.65
68098;DHT22;54886;47.036;15.466;2022-12-18T07:48:01;-2.40;83.29
68098;DHT22;54886;47.036;15.466;2022-12-18T07:50:27;-2.36;82.74
68098;DHT22;54886;47.036;15.466;2022-12-18T07:52:52;-2.35;82.82
68098;DHT22;54886;47.036;15.466;2022-12-18T07:55:18;-2.32;82.58
68098;DHT22;54886;47.036;15.466;2022-12-18T07:57:43;-2.32;82.26
68098;DHT22;54886;47.036;15.466;2022-12-18T08:00:09;-2.33;82.79
68098;DHT22;54886;47.036;15.466;2022-12-18T08:02:34;-2.32;82.68
68098;DHT22;54886;47.036;15.466;2022-12-18T08:05:00;-2.30;82.73
68098;DHT22;54886;47.036;15.466;2022-12-18T08:07:25;-2.29;82.65
68098;DHT22;54886;47.036;15.466;2022-12-18T08:09:51;-2.30;81.85
68098;DHT22;54886;47.036;15.466;2022-12-18T08:12:16;-2.29;82.04
68098;DHT22;54886;47.036;15.466;2022-12-18T08:14:41;-2.25;82.15
68098;DHT22;54886;47.036;15.466;2022-12-18T08:17:07;-2.21;82.29
68098;DHT22;54886;47.036;15.466;2022-12-18T08:19:32;-2.18;82.38
68098;DHT22;54886;47.036;15.466;2022-12-18T08:21:58;-2.13;82.47
68098;DHT22;54886;47.036;15.466;2022-12-18T08:24:23;-2.15;82.19
68098;DHT22;54886;47.036;15.466;2022-12-18T08:26:48;-2.12;81.99
68098;DHT22;54886;47.036;15.466;2022-12-18T08:29:14;-2.09;81.99
68098;DHT22;54886;47.036;15.466;2022-12-18T08:31:39;-2.09;82.43
68098;DHT22;54886;47.036;15.466;2022-12-18T08:34:05;-2.05;82.46
68098;DHT22;54886;47.036;15.466;2022-12-18T08:36:30;-2.06;82.73
68098;DHT22;54886;47.036;15.466;2022-12-18T08:38:56;-2.02;82.85
68098;DHT22;54886;47.036;15.466;2022-12-18T08:41:22;-2.02;82.48
68098;DHT22;54886;47.036;15.466;2022-12-18T08:43:48;-1.98;82.31
68098;DHT22;54886;47.036;15.466;2022-12-18T08:46:36;-1.97;81.95
68098;DHT22;54886;47.036;15.466;2022-12-18T08:49:02;-1.95;82.56
68098;DHT22;54886;47.036;15.466;2022-12-18T08:51:28;-1.94;82.64
68098;DHT22;54886;47.036;15.466;2022-12-18T08:54:12;-1.91;82.66
68098;DHT22;54886;47.036;15.466;2022-12-18T08:56:38;-1.87;82.78
68098;DHT22;54886;47.036;15.466;2022-12-18T08:59:04;-1.87;82.47
68098;DHT22;54886;47.036;15.466;2022-12-18T09:01:30;-1.88;82.57
68098;DHT22;54886;47.036;15.466;2022-12-18T09:03:55;-1.85;82.01
68098;DHT22;54886;47.036;15.466;2022-12-18T09:06:22;-1.85;81.57
68098;DHT22;54886;47.036;15.466;2022-12-18T09:08:47;-1.85;81.72
68098;DHT22;54886;47.036;15.466;2022-12-18T09:11:24;-1.85;81.77
68098;DHT22;54886;47.036;15.466;2022-12-18T09:13:50;-1.83;82.33
68098;DHT22;54886;47.036;15.466;2022-12-18T09:16:16;-1.78;82.56
68098;DHT22;54886;47.036;15.466;2022-12-18T09:18:42;-1.81;81.63
68098;DHT22;54886;47.036;15.466;2022-12-18T09:21:09;-1.77;81.72
68098;DHT22;54886;47.036;15.466;2022-12-18T09:23:35;-1.75;81.43
68098;DHT22;54886;47.036;15.466;2022-12-18T09:26:00;-1.77;81.81
68098;DHT22;54886;47.036;15.466;2022-12-18T09:28:25;-1.77;81.77
68098;DHT22;54886;47.036;15.466;2022-12-18T09:30:51;-1.71;81.87
68098;DHT22;54886;47.036;15.466;2022-12-18T09:33:17;-1.68;81.95
68098;DHT22;54886;47.036;15.466;2022-12-18T09:35:43;-1.67;82.38
68098;DHT22;54886;47.036;15.466;2022-12-18T09:38:13;-1.67;82.14
68098;DHT22;54886;47.036;15.466;2022-12-18T09:40:45;-1.64;81.99
68098;DHT22;54886;47.036;15.466;2022-12-18T09:43:19;-1.66;82.07
68098;DHT22;54886;47.036;15.466;2022-12-18T09:45:51;-1.60;82.19
68098;DHT22;54886;47.036;15.466;2022-12-18T09:48:31;-1.60;81.69
68098;DHT22;54886;47.036;15.466;2022-12-18T09:51:02;-1.59;81.66
68098;DHT22;54886;47.036;15.466;2022-12-18T09:53:31;-1.56;81.60
68098;DHT22;54886;47.036;15.466;2022-12-18T09:56:00;-1.55;82.24
68098;DHT22;54886;47.036;15.466;2022-12-18T09:58:31;-1.50;82.03
68098;DHT22;54886;47.036;15.466;2022-12-18T10:00:59;-1.55;82.62
68098;DHT22;54886;47.036;15.466;2022-12-18T10:03:25;-1.49;82.71
68098;DHT22;54886;47.036;15.466;2022-12-18T10:08:56;-1.46;82.63
68098;DHT22;54886;47.036;15.466;2022-12-18T10:17:16;-1.42;82.50
68098;DHT22;54886;47.036;15.466;2022-12-18T10:19:54;-1.39;82.91
68098;DHT22;54886;47.036;15.466;2022-12-18T10:25:25;-1.35;82.67
68098;DHT22;54886;47.036;15.466;2022-12-18T10:27:56;-1.45;82.68
68098;DHT22;54886;47.036;15.466;2022-12-18T10:30:24;-1.45;82.91
68098;DHT22;54886;47.036;15.466;2022-12-18T10:32:51;-1.42;83.01
68098;DHT22;54886;47.036;15.466;2022-12-18T10:35:19;-1.36;83.20
68098;DHT22;54886;47.036;15.466;2022-12-18T10:40:48;-1.29;83.27
68098;DHT22;54886;47.036;15.466;2022-12-18T10:43:15;-1.28;83.00
68098;DHT22;54886;47.036;15.466;2022-12-18T10:46:18;-1.24;83.39
68098;DHT22;54886;47.036;15.466;2022-12-18T10:51:29;-1.18;83.53
68098;DHT22;54886;47.036;15.466;2022-12-18T10:53:57;-1.18;83.86
68098;DHT22;54886;47.036;15.466;2022-12-18T10:56:25;-1.18;84.13
68098;DHT22;54886;47.036;15.466;2022-12-18T10:59:05;-1.11;83.70
68098;DHT22;54886;47.036;15.466;2022-12-18T11:01:52;-1.12;83.77
68098;DHT22;54886;47.036;15.466;2022-12-18T11:04:23;-1.09;83.42
68098;DHT22;54886;47.036;15.466;2022-12-18T11:07:08;-1.02;83.31
68098;DHT22;54886;47.036;15.466;2022-12-18T11:09:37;-1.08;83.48
68098;DHT22;54886;47.036;15.466;2022-12-18T11:12:15;-1.15;83.22
68098;DHT22;54886;47.036;15.466;2022-12-18T11:14:50;-1.15;82.44
68098;DHT22;54886;47.036;15.466;2022-12-18T11:17:30;-1.15;82.40
68098;DHT22;54886;47.036;15.466;2022-12-18T11:20:02;-1.12;82.43
68098;DHT22;54886;47.036;15.466;2022-12-18T11:22:36;-1.09;82.77
68098;DHT22;54886;47.036;15.466;2022-12-18T11:25:23;-1.08;83.33
68098;DHT22;54886;47.036;15.466;2022-12-18T11:27:53;-1.05;83.71
68098;DHT22;54886;47.036;15.466;2022-12-18T11:33:13;-1.15;84.03
68098;DHT22;54886;47.036;15.466;2022-12-18T11:35:51;-1.13;84.71
68098;DHT22;54886;47.036;15.466;2022-12-18T11:38:26;-1.11;83.97
68098;DHT22;54886;47.036;15.466;2022-12-18T11:43:30;-1.05;83.68
68098;DHT22;54886;47.036;15.466;2022-12-18T11:46:08;-1.04;83.66
68098;DHT22;54886;47.036;15.466;2022-12-18T11:48:44;-1.01;83.95
68098;DHT22;54886;47.036;15.466;2022-12-18T11:51:35;-0.98;84.01
68098;DHT22;54886;47.036;15.466;2022-12-18T11:54:11;-1.00;83.93
68098;DHT22;54886;47.036;15.466;2022-12-18T11:59:38;-0.98;84.02
68098;DHT22;54886;47.036;15.466;2022-12-18T12:16:18;-1.01;84.41
68098;DHT22;54886;47.036;15.466;2022-12-18T12:21:45;-0.97;84.15
68098;DHT22;54886;47.036;15.466;2022-12-18T12:24:35;-0.95;83.47
68098;DHT22;54886;47.036;15.466;2022-12-18T12:30:16;-1.07;83.65
68098;DHT22;54886;47.036;15.466;2022-12-18T12:38:13;-1.07;83.90
68098;DHT22;54886;47.036;15.466;2022-12-18T12:40:48;-1.05;83.82
68098;DHT22;54886;47.036;15.466;2022-12-18T12:51:26;-1.07;84.37
68098;DHT22;54886;47.036;15.466;2022-12-18T12:53:54;-1.05;84.48
68098;DHT22;54886;47.036;15.466;2022-12-18T12:56:21;-1.02;84.38
68098;DHT22;54886;47.036;15.466;2022-12-18T12:59:13;-1.00;84.40
68098;DHT22;54886;47.036;15.466;2022-12-18T13:13:05;-0.92;84.28
68098;DHT22;54886;47.036;15.466;2022-12-18T13:15:39;-0.97;84.27
68098;DHT22;54886;47.036;15.466;2022-12-18T13:20:36;-0.97;84.51
68098;DHT22;54886;47.036;15.466;2022-12-18T13:31:13;-1.01;84.72
68098;DHT22;54886;47.036;15.466;2022-12-18T13:33:41;-1.01;84.55
68098;DHT22;54886;47.036;15.466;2022-12-18T13:38:43;-1.00;84.68
68098;DHT22;54886;47.036;15.466;2022-12-18T13:43:49;-0.94;84.69
68098;DHT22;54886;47.036;15.466;2022-12-18T13:46:42;-0.94;84.61
68098;DHT22;54886;47.036;15.466;2022-12-18T13:51:46;-0.87;84.44
68098;DHT22;54886;47.036;15.466;2022-12-18T13:54:30;-0.88;84.51
68098;DHT22;54886;47.036;15.466;2022-12-18T13:56:58;-0.85;84.68
68098;DHT22;54886;47.036;15.466;2022-12-18T13:59:33;-0.85;84.90
68098;DHT22;54886;47.036;15.466;2022-12-18T14:02:01;-0.84;84.95
68098;DHT22;54886;47.036;15.466;2022-12-18T14:04:34;-0.83;84.73
68098;DHT22;54886;47.036;15.466;2022-12-18T14:07:11;-0.77;84.52
68098;DHT22;54886;47.036;15.466;2022-12-18T14:09:42;-0.79;84.71
68098;DHT22;54886;47.036;15.466;2022-12-18T14:12:29;-0.74;84.52
68098;DHT22;54886;47.036;15.466;2022-12-18T14:17:54;-0.73;84.39
68098;DHT22;54886;47.036;15.466;2022-12-18T14:20:21;-0.74;84.34
68098;DHT22;54886;47.036;15.466;2022-12-18T14:22:48;-0.77;84.36
68098;DHT22;54886;47.036;15.466;2022-12-18T14:25:23;-0.74;84.27
68098;DHT22;54886;47.036;15.466;2022-12-18T14:30:37;-0.74;84.10
68098;DHT22;54886;47.036;15.466;2022-12-18T14:33:14;-0.79;84.03
68098;DHT22;54886;47.036;15.466;2022-12-18T14:36:00;-0.79;83.53
68098;DHT22;54886;47.036;15.466;2022-12-18T14:38:33;-0.83;83.76
68098;DHT22;54886;47.036;15.466;2022-12-18T14:43:35;-0.81;83.99
68098;DHT22;54886;47.036;15.466;2022-12-18T14:46:02;-0.79;83.91
68098;DHT22;54886;47.036;15.466;2022-12-18T14:48:41;-0.80;83.87
68098;DHT22;54886;47.036;15.466;2022-12-18T14:56:02;-0.74;84.25
68098;DHT22;54886;47.036;15.466;2022-12-18T14:58:28;-0.73;84.35
68098;DHT22;54886;47.036;15.466;2022-12-18T15:00:53;-0.73;84.42
68098;DHT22;54886;47.036;15.466;2022-12-18T15:03:20;-0.72;83.94
68098;DHT22;54886;47.036;15.466;2022-12-18T15:05:46;-0.73;83.85
68098;DHT22;54886;47.036;15.466;2022-12-18T15:08:31;-0.73;83.94
68098;DHT22;54886;47.036;15.466;2022-12-18T15:10:56;-0.74;84.00
68098;DHT22;54886;47.036;15.466;2022-12-18T15:13:23;-0.69;83.94
68098;DHT22;54886;47.036;15.466;2022-12-18T15:15:50;-0.70;83.82
68098;DHT22;54886;47.036;15.466;2022-12-18T15:18:35;-0.70;83.83
68098;DHT22;54886;47.036;15.466;2022-12-18T15:21:10;-0.69;84.09
68098;DHT22;54886;47.036;15.466;2022-12-18T15:23:46;-0.66;83.98
68098;DHT22;54886;47.036;15.466;2022-12-18T15:26:14;-0.66;83.76
68098;DHT22;54886;47.036;15.466;2022-12-18T15:28:50;-0.66;83.62
68098;DHT22;54886;47.036;15.466;2022-12-18T15:36:19;-0.67;83.66
68098;DHT22;54886;47.036;15.466;2022-12-18T15:38:49;-0.66;83.76
68098;DHT22;54886;47.036;15.466;2022-12-18T15:41:17;-0.66;83.52
68098;DHT22;54886;47.036;15.466;2022-12-18T15:43:43;-0.64;83.44
68098;DHT22;54886;47.036;15.466;2022-12-18T15:46:17;-0.64;83.47
68098;DHT22;54886;47.036;15.466;2022-12-18T15:48:48;-0.64;83.37
68098;DHT22;54886;47.036;15.466;2022-12-18T15:51:19;-0.67;83.10
68098;DHT22;54886;47.036;15.466;2022-12-18T15:53:46;-0.70;83.00
68098;DHT22;54886;47.036;15.466;2022-12-18T15:56:13;-0.72;83.45
68098;DHT22;54886;47.036;15.466;2022-12-18T15:58:57;-0.67;83.61
68098;DHT22;54886;47.036;15.466;2022-12-18T16:01:26;-0.67;83.60
68098;DHT22;54886;47.036;15.466;2022-12-18T16:03:51;-0.64;83.47
68098;DHT22;54886;47.036;15.466;2022-12-18T16:06:17;-0.63;83.31
68098;DHT22;54886;47.036;15.466;2022-12-18T16:08:42;-0.64;83.29
68098;DHT22;54886;47.036;15.466;2022-12-18T16:11:21;-0.63;83.41
68098;DHT22;54886;47.036;15.466;2022-12-18T16:14:10;-0.63;83.43
68098;DHT22;54886;47.036;15.466;2022-12-18T16:16:37;-0.63;83.52
68098;DHT22;54886;47.036;15.466;2022-12-18T16:19:02;-0.62;83.46
68098;DHT22;54886;47.036;15.466;2022-12-18T16:21:28;-0.60;83.57
68098;DHT22;54886;47.036;15.466;2022-12-18T16:23:53;-0.60;83.64
68098;DHT22;54886;47.036;15.466;2022-12-18T16:26:19;-0.62;83.64
68098;DHT22;54886;47.036;15.466;2022-12-18T16:28:44;-0.57;83.59
68098;DHT22;54886;47.036;15.466;2022-12-18T16:31:09;-0.59;83.52
68098;DHT22;54886;47.036;15.466;2022-12-18T16:33:35;-0.57;83.51
68098;DHT22;54886;47.036;15.466;2022-12-18T16:36:00;-0.56;83.48
68098;DHT22;54886;47.036;15.466;2022-12-18T16:38:26;-0.59;83.54
68098;DHT22;54886;47.036;15.466;2022-12-18T16:40:51;-0.62;83.45
68098;DHT22;54886;47.036;15.466;2022-12-18T16:43:35;-0.62;83.48
68098;DHT22;54886;47.036;15.466;2022-12-18T16:46:01;-0.57;83.51
68098;DHT22;54886;47.036;15.466;2022-12-18T16:48:27;-0.57;83.52
68098;DHT22;54886;47.036;15.466;2022-12-18T16:51:00;-0.56;83.48
68098;DHT22;54886;47.036;15.466;2022-12-18T16:53:31;-0.57;83.47
68098;DHT22;54886;47.036;15.466;2022-12-18T16:55:57;-0.55;83.37
68098;DHT22;54886;47.036;15.466;2022-12-18T16:58:23;-0.55;83.43
68098;DHT22;54886;47.036;15.466;2022-12-18T17:00:49;-0.53;83.62
68098;DHT22;54886;47.036;15.466;2022-12-18T17:03:15;-0.55;83.54
68098;DHT22;54886;47.036;15.466;2022-12-18T17:05:41;-0.52;83.54
68098;DHT22;54886;47.036;15.466;2022-12-18T17:08:06;-0.55;83.52
68098;DHT22;54886;47.036;15.466;2022-12-18T17:10:34;-0.53;83.52
68098;DHT22;54886;47.036;15.466;2022-12-18T17:13:01;-0.52;83.57
68098;DHT22;54886;47.036;15.466;2022-12-18T17:15:26;-0.52;83.54
68098;DHT22;54886;47.036;15.466;2022-12-18T17:17:51;-0.52;83.47
68098;DHT22;54886;47.036;15.466;2022-12-18T17:20:17;-0.50;83.55
68098;DHT22;54886;47.036;15.466;2022-12-18T17:22:45;-0.50;83.49
68098;DHT22;54886;47.036;15.466;2022-12-18T17:25:11;-0.52;83.45
68098;DHT22;54886;47.036;15.466;2022-12-18T17:27:36;-0.53;83.46
68098;DHT22;54886;47.036;15.466;2022-12-18T17:30:03;-0.55;83.42
68098;DHT22;54886;47.036;15.466;2022-12-18T17:32:30;-0.52;83.30
68098;DHT22;54886;47.036;15.466;2022-12-18T17:34:56;-0.50;83.29
68098;DHT22;54886;47.036;15.466;2022-12-18T17:37:24;-0.50;83.27